createdAt,value
2019-01-30T00:00:30.711Z,960.19
2019-01-30T00:01:30.664Z,960.16
2019-01-30T00:02:30.620Z,960.16
2019-01-30T00:03:30.579Z,960.17
2019-01-30T00:04:30.528Z,960.14
2019-01-30T00:05:30.485Z,960.14
2019-01-30T00:06:30.439Z,960.12
2019-01-30T00:07:30.394Z,960.11
2019-01-30T00:08:30.355Z,960.12
2019-01-30T00:09:30.308Z,960.10
2019-01-30T00:10:30.265Z,960.07
2019-01-30T00:11:30.222Z,960.11
2019-01-30T00:12:30.173Z,960.08
2019-01-30T00:13:30.131Z,960.06
2019-01-30T00:14:30.086Z,960.03
2019-01-30T00:15:30.045Z,960.04
2019-01-30T00:16:29.994Z,960.02
2019-01-30T00:17:29.951Z,960.04
2019-01-30T00:18:29.906Z,960.02
2019-01-30T00:19:29.863Z,959.97
2019-01-30T00:20:29.823Z,959.94
2019-01-30T00:21:29.778Z,959.95
2019-01-30T00:22:29.727Z,959.88
2019-01-30T00:23:29.684Z,959.90
2019-01-30T00:24:29.643Z,959.89
2019-01-30T00:25:29.603Z,959.88
2019-01-30T00:26:29.555Z,959.84
2019-01-30T00:27:29.512Z,959.81
2019-01-30T00:28:29.462Z,959.82
2019-01-30T00:29:29.423Z,959.78
2019-01-30T00:30:29.377Z,959.79
2019-01-30T00:31:29.331Z,959.78
2019-01-30T00:32:29.284Z,959.74
2019-01-30T00:33:29.246Z,959.77
2019-01-30T00:34:29.194Z,959.73
2019-01-30T00:35:29.152Z,959.74
2019-01-30T00:36:29.113Z,959.68
2019-01-30T00:37:29.067Z,959.66
2019-01-30T00:38:29.022Z,959.67
2019-01-30T00:39:29.016Z,959.66
2019-01-30T00:40:28.931Z,959.62
2019-01-30T00:41:28.883Z,959.65
2019-01-30T00:42:28.838Z,959.63
2019-01-30T00:43:28.797Z,959.64
2019-01-30T00:44:28.754Z,959.65
2019-01-30T00:45:28.713Z,959.64
2019-01-30T00:46:28.663Z,959.63
2019-01-30T00:47:28.617Z,959.63
2019-01-30T00:48:28.576Z,959.59
2019-01-30T00:49:28.536Z,959.57
2019-01-30T00:50:28.493Z,959.59
2019-01-30T00:51:28.442Z,959.54
2019-01-30T00:52:28.398Z,959.51
2019-01-30T00:53:28.362Z,959.45
2019-01-30T00:54:32.230Z,959.46
2019-01-30T00:55:28.263Z,959.42
2019-01-30T00:56:28.221Z,959.38
2019-01-30T00:57:28.186Z,959.39
2019-01-30T00:58:28.136Z,959.35
2019-01-30T00:59:28.088Z,959.30
2019-01-30T01:00:28.040Z,959.31
2019-01-30T01:01:27.994Z,959.29
2019-01-30T01:02:27.957Z,959.29
2019-01-30T01:03:27.909Z,959.27
2019-01-30T01:04:27.865Z,959.25
2019-01-30T01:05:27.817Z,959.26
2019-01-30T01:06:27.774Z,959.24
2019-01-30T01:07:27.730Z,959.24
2019-01-30T01:08:27.687Z,959.20
2019-01-30T01:09:27.645Z,959.19
2019-01-30T01:10:27.600Z,959.20
2019-01-30T01:12:59.654Z,959.15
2019-01-30T01:13:59.578Z,959.17
2019-01-30T01:14:59.534Z,959.14
2019-01-30T01:15:59.489Z,959.14
2019-01-30T01:16:59.441Z,959.14
2019-01-30T01:17:59.395Z,959.11
2019-01-30T01:18:59.353Z,959.10
2019-01-30T01:19:59.311Z,959.08
2019-01-30T01:20:59.272Z,959.05
2019-01-30T01:21:59.218Z,958.99
2019-01-30T01:22:59.175Z,959.02
2019-01-30T01:23:59.144Z,959.02
2019-01-30T01:24:59.100Z,958.98
2019-01-30T01:25:59.047Z,958.97
2019-01-30T01:26:59.003Z,958.99
2019-01-30T01:27:58.956Z,958.99
2019-01-30T01:28:58.909Z,958.94
2019-01-30T01:29:58.863Z,958.96
2019-01-30T01:30:58.852Z,958.93
2019-01-30T01:31:58.781Z,958.93
2019-01-30T01:32:58.735Z,958.89
2019-01-30T01:33:58.691Z,958.89
2019-01-30T01:34:58.644Z,958.83
2019-01-30T01:35:58.599Z,958.86
2019-01-30T01:36:58.554Z,958.85
2019-01-30T01:37:58.513Z,958.84
2019-01-30T01:38:58.468Z,958.80
2019-01-30T01:39:58.420Z,958.86
2019-01-30T01:40:58.375Z,958.83
2019-01-30T01:41:58.330Z,958.78
2019-01-30T01:42:58.295Z,958.78
2019-01-30T01:43:58.289Z,958.76
2019-01-30T01:44:58.215Z,958.76
2019-01-30T01:45:58.156Z,958.79
2019-01-30T01:46:58.111Z,958.77
2019-01-30T01:47:58.067Z,958.74
2019-01-30T01:48:58.018Z,958.75
2019-01-30T01:49:57.972Z,958.69
2019-01-30T01:50:57.931Z,958.69
2019-01-30T01:51:57.892Z,958.63
2019-01-30T01:52:57.848Z,958.64
2019-01-30T01:53:57.795Z,958.60
2019-01-30T01:54:57.866Z,958.57
2019-01-30T01:55:57.715Z,958.54
2019-01-30T01:56:57.673Z,958.54
2019-01-30T01:57:57.623Z,958.53
2019-01-30T01:58:57.577Z,958.53
2019-01-30T01:59:57.530Z,958.53
2019-01-30T02:00:57.490Z,958.55
2019-01-30T02:01:57.439Z,958.51
2019-01-30T02:02:57.429Z,958.54
2019-01-30T02:03:57.353Z,958.51
2019-01-30T02:04:57.322Z,958.50
2019-01-30T02:05:57.268Z,958.50
2019-01-30T02:06:57.228Z,958.43
2019-01-30T02:07:57.174Z,958.47
2019-01-30T02:08:57.130Z,958.47
2019-01-30T02:09:57.092Z,958.44
2019-01-30T02:10:57.060Z,958.44
2019-01-30T02:11:56.997Z,958.42
2019-01-30T02:12:56.958Z,958.35
2019-01-30T02:13:57.007Z,958.38
2019-01-30T02:14:56.865Z,958.35
2019-01-30T02:15:56.824Z,958.31
2019-01-30T02:16:56.777Z,958.28
2019-01-30T02:17:56.733Z,958.22
2019-01-30T02:18:56.739Z,958.24
2019-01-30T02:19:56.636Z,958.24
2019-01-30T02:20:56.597Z,958.21
2019-01-30T02:21:56.546Z,958.20
2019-01-30T02:22:56.512Z,958.19
2019-01-30T02:23:56.462Z,958.14
2019-01-30T02:24:56.420Z,958.14
2019-01-30T02:25:56.375Z,958.11
2019-01-30T02:26:56.325Z,958.07
2019-01-30T02:27:56.286Z,958.05
2019-01-30T02:28:56.248Z,958.01
2019-01-30T02:29:56.203Z,957.96
2019-01-30T02:30:56.151Z,957.97
2019-01-30T02:31:56.106Z,957.98
2019-01-30T02:32:56.061Z,957.97
2019-01-30T02:33:56.014Z,957.97
2019-01-30T02:34:55.978Z,957.97
2019-01-30T02:35:55.935Z,957.95
2019-01-30T02:36:55.896Z,957.96
2019-01-30T02:37:55.846Z,957.92
2019-01-30T02:38:55.799Z,957.93
2019-01-30T02:39:55.752Z,957.91
2019-01-30T02:40:55.728Z,957.88
2019-01-30T02:41:55.669Z,957.90
2019-01-30T02:42:55.715Z,957.92
2019-01-30T02:43:55.574Z,957.88
2019-01-30T02:44:55.530Z,957.89
2019-01-30T02:45:55.485Z,957.82
2019-01-30T02:46:55.442Z,957.82
2019-01-30T02:47:55.397Z,957.79
2019-01-30T02:48:55.356Z,957.80
2019-01-30T02:49:55.309Z,957.77
2019-01-30T02:50:55.263Z,957.73
2019-01-30T02:51:55.220Z,957.74
2019-01-30T02:52:55.171Z,957.75
2019-01-30T02:53:55.129Z,957.66
2019-01-30T02:54:55.082Z,957.67
2019-01-30T02:55:55.041Z,957.66
2019-01-30T02:56:54.995Z,957.68
2019-01-30T02:57:54.951Z,957.58
2019-01-30T02:58:54.902Z,957.64
2019-01-30T02:59:54.864Z,957.59
2019-01-30T03:00:59.233Z,957.62
2019-01-30T03:01:54.871Z,957.60
2019-01-30T03:02:54.727Z,957.55
2019-01-30T03:03:54.679Z,957.53
2019-01-30T03:04:54.635Z,957.57
2019-01-30T03:05:54.600Z,957.58
2019-01-30T03:06:54.548Z,957.57
2019-01-30T03:07:54.508Z,957.54
2019-01-30T03:08:54.464Z,957.54
2019-01-30T03:09:54.418Z,957.55
2019-01-30T03:10:54.373Z,957.54
2019-01-30T03:11:54.326Z,957.55
2019-01-30T03:12:54.278Z,957.53
2019-01-30T03:13:54.239Z,957.54
2019-01-30T03:14:54.199Z,957.53
2019-01-30T03:15:54.146Z,957.52
2019-01-30T03:16:54.104Z,957.55
2019-01-30T03:17:54.064Z,957.53
2019-01-30T03:18:54.013Z,957.53
2019-01-30T03:19:53.970Z,957.54
2019-01-30T03:20:53.931Z,957.53
2019-01-30T03:21:53.889Z,957.52
2019-01-30T03:22:53.844Z,957.55
2019-01-30T03:23:53.794Z,957.55
2019-01-30T03:24:53.747Z,957.51
2019-01-30T03:25:53.700Z,957.43
2019-01-30T03:26:53.661Z,957.46
2019-01-30T03:27:53.633Z,957.46
2019-01-30T03:28:53.597Z,957.48
2019-01-30T03:29:53.520Z,957.48
2019-01-30T03:30:53.482Z,957.45
2019-01-30T03:31:53.441Z,957.45
2019-01-30T03:32:53.689Z,957.42
2019-01-30T03:33:53.385Z,957.41
2019-01-30T03:34:53.330Z,957.42
2019-01-30T03:35:53.256Z,957.39
2019-01-30T03:36:53.213Z,957.43
2019-01-30T03:37:53.167Z,957.40
2019-01-30T03:38:53.123Z,957.34
2019-01-30T03:39:53.083Z,957.34
2019-01-30T03:40:53.042Z,957.34
2019-01-30T03:41:52.996Z,957.34
2019-01-30T03:42:52.948Z,957.28
2019-01-30T03:43:52.901Z,957.31
2019-01-30T03:44:52.870Z,957.31
2019-01-30T03:45:52.826Z,957.33
2019-01-30T03:46:52.770Z,957.38
2019-01-30T03:47:52.728Z,957.37
2019-01-30T03:48:52.676Z,957.37
2019-01-30T03:49:52.634Z,957.37
2019-01-30T03:50:52.590Z,957.41
2019-01-30T04:06:39.241Z,957.32
2019-01-30T04:07:31.479Z,957.32
2019-01-30T04:08:31.452Z,957.36
2019-01-30T04:09:31.384Z,957.36
2019-01-30T04:10:31.332Z,957.37
2019-01-30T04:11:31.289Z,957.34
2019-01-30T04:12:31.241Z,957.35
2019-01-30T04:13:31.187Z,957.32
2019-01-30T04:14:31.144Z,957.34
2019-01-30T04:15:31.100Z,957.33
2019-01-30T04:16:31.057Z,957.31
2019-01-30T04:17:31.009Z,957.24
2019-01-30T04:18:30.965Z,957.20
2019-01-30T04:19:30.924Z,957.20
2019-01-30T04:20:30.880Z,957.23
2019-01-30T04:21:30.837Z,957.21
2019-01-30T04:22:30.783Z,957.20
2019-01-30T04:23:30.740Z,957.23
2019-01-30T04:24:30.690Z,957.24
2019-01-30T04:25:30.645Z,957.21
2019-01-30T04:26:30.602Z,957.23
2019-01-30T04:27:30.563Z,957.20
2019-01-30T04:28:30.516Z,957.24
2019-01-30T04:29:30.470Z,957.26
2019-01-30T04:30:30.501Z,957.23
2019-01-30T04:31:37.802Z,957.24
2019-01-30T04:32:30.337Z,957.24
2019-01-30T04:33:30.292Z,957.22
2019-01-30T04:34:30.243Z,957.23
2019-01-30T04:35:30.200Z,957.24
2019-01-30T04:36:30.199Z,957.23
2019-01-30T04:37:30.104Z,957.24
2019-01-30T04:38:30.066Z,957.25
2019-01-30T04:39:30.024Z,957.24
2019-01-30T04:40:29.980Z,957.25
2019-01-30T04:41:29.933Z,957.25
2019-01-30T04:42:29.890Z,957.23
2019-01-30T04:43:29.841Z,957.21
2019-01-30T04:44:29.799Z,957.18
2019-01-30T04:45:29.748Z,957.22
2019-01-30T04:46:29.706Z,957.21
2019-01-30T04:47:29.663Z,957.16
2019-01-30T04:48:29.622Z,957.19
2019-01-30T04:49:29.571Z,957.21
2019-01-30T04:50:29.529Z,957.19
2019-01-30T04:51:29.495Z,957.17
2019-01-30T04:52:29.448Z,957.16
2019-01-30T04:53:29.398Z,957.16
2019-01-30T04:54:29.348Z,957.17
2019-01-30T04:55:29.308Z,957.24
2019-01-30T04:56:29.262Z,957.22
2019-01-30T04:57:29.219Z,957.24
2019-01-30T04:58:29.173Z,957.24
2019-01-30T04:59:29.135Z,957.27
2019-01-30T05:00:29.091Z,957.24
2019-01-30T05:01:29.042Z,957.23
2019-01-30T05:02:28.999Z,957.24
2019-01-30T05:03:28.956Z,957.22
2019-01-30T05:04:28.904Z,957.26
2019-01-30T05:05:28.865Z,957.23
2019-01-30T05:06:28.821Z,957.22
2019-01-30T05:07:28.773Z,957.26
2019-01-30T05:08:28.729Z,957.22
2019-01-30T05:09:28.679Z,957.24
2019-01-30T05:10:28.643Z,957.26
2019-01-30T05:11:28.597Z,957.28
2019-01-30T05:12:28.639Z,957.26
2019-01-30T05:13:28.509Z,957.27
2019-01-30T05:14:28.467Z,957.25
2019-01-30T05:15:28.418Z,957.27
2019-01-30T05:16:28.375Z,957.23
2019-01-30T05:17:28.329Z,957.29
2019-01-30T05:18:28.286Z,957.24
2019-01-30T05:19:28.244Z,957.22
2019-01-30T05:20:28.200Z,957.22
2019-01-30T05:21:28.148Z,957.19
2019-01-30T05:22:28.110Z,957.15
2019-01-30T05:23:28.063Z,957.17
2019-01-30T05:24:28.029Z,957.13
2019-01-30T05:25:27.982Z,957.14
2019-01-30T05:26:27.946Z,957.16
2019-01-30T05:27:27.883Z,957.13
2019-01-30T05:28:27.838Z,957.14
2019-01-30T05:29:27.793Z,957.13
2019-01-30T05:30:27.750Z,957.13
2019-01-30T05:31:27.708Z,957.09
2019-01-30T05:32:27.666Z,957.15
2019-01-30T05:33:27.637Z,957.12
2019-01-30T05:34:27.575Z,957.09
2019-01-30T05:35:27.532Z,957.10
2019-01-30T05:36:27.485Z,957.17
2019-01-30T05:37:27.448Z,957.09
2019-01-30T05:38:27.398Z,957.11
2019-01-30T05:39:27.351Z,957.12
2019-01-30T05:40:27.309Z,957.07
2019-01-30T05:41:27.263Z,957.09
2019-01-30T05:42:27.224Z,957.05
2019-01-30T05:43:27.179Z,957.05
2019-01-30T05:44:27.147Z,957.08
2019-01-30T05:45:27.108Z,957.08
2019-01-30T05:46:27.043Z,957.06
2019-01-30T05:47:26.997Z,957.04
2019-01-30T05:48:26.950Z,957.00
2019-01-30T05:49:29.111Z,956.97
2019-01-30T05:50:26.866Z,956.94
2019-01-30T05:51:26.855Z,956.94
2019-01-30T05:52:26.778Z,956.95
2019-01-30T05:53:26.732Z,956.95
2019-01-30T05:54:26.689Z,956.90
2019-01-30T05:55:26.645Z,956.91
2019-01-30T05:56:26.604Z,956.89
2019-01-30T05:57:26.560Z,956.88
2019-01-30T05:58:26.510Z,956.90
2019-01-30T05:59:26.468Z,956.92
2019-01-30T06:00:26.419Z,956.89
2019-01-30T06:01:26.374Z,956.81
2019-01-30T06:02:26.332Z,956.85
2019-01-30T06:03:26.293Z,956.81
2019-01-30T06:04:26.246Z,956.81
2019-01-30T06:05:28.133Z,956.78
2019-01-30T06:06:26.156Z,956.80
2019-01-30T06:07:26.123Z,956.79
2019-01-30T06:08:26.065Z,956.78
2019-01-30T06:09:26.026Z,956.79
2019-01-30T06:10:25.979Z,956.74
2019-01-30T06:11:25.934Z,956.74
2019-01-30T06:12:25.888Z,956.77
2019-01-30T06:13:25.841Z,956.76
2019-01-30T06:14:25.803Z,956.74
2019-01-30T06:15:25.760Z,956.73
2019-01-30T06:16:25.717Z,956.73
2019-01-30T06:17:25.669Z,956.72
2019-01-30T06:18:25.623Z,956.69
2019-01-30T06:19:25.581Z,956.71
2019-01-30T06:20:25.533Z,956.68
2019-01-30T06:21:25.505Z,956.67
2019-01-30T06:22:25.446Z,956.69
2019-01-30T06:23:25.459Z,956.71
2019-01-30T06:24:25.360Z,956.70
2019-01-30T06:25:25.323Z,956.70
2019-01-30T06:26:25.269Z,956.68
2019-01-30T06:27:25.226Z,956.69
2019-01-30T06:28:28.690Z,956.68
2019-01-30T06:29:25.144Z,956.67
2019-01-30T06:30:25.090Z,956.68
2019-01-30T06:31:27.048Z,956.64
2019-01-30T06:32:24.999Z,956.64
2019-01-30T06:33:24.955Z,956.64
2019-01-30T06:34:24.919Z,956.66
2019-01-30T06:35:24.872Z,956.60
2019-01-30T06:36:24.826Z,956.60
2019-01-30T06:37:24.782Z,956.55
2019-01-30T06:38:24.736Z,956.60
2019-01-30T06:39:24.693Z,956.57
2019-01-30T06:40:24.644Z,956.63
2019-01-30T06:41:24.603Z,956.59
2019-01-30T06:42:24.557Z,956.63
2019-01-30T06:43:24.515Z,956.60
2019-01-30T06:44:24.471Z,956.59
2019-01-30T06:45:24.418Z,956.62
2019-01-30T06:46:24.378Z,956.64
2019-01-30T06:47:24.336Z,956.61
2019-01-30T06:48:24.293Z,956.68
2019-01-30T06:49:24.253Z,956.65
2019-01-30T06:50:24.202Z,956.65
2019-01-30T06:51:24.157Z,956.68
2019-01-30T06:52:24.110Z,956.67
2019-01-30T06:53:24.063Z,956.67
2019-01-30T06:54:24.021Z,956.68
2019-01-30T06:55:23.988Z,956.69
2019-01-30T06:56:23.938Z,956.67
2019-01-30T06:57:23.885Z,956.68
2019-01-30T06:58:23.845Z,956.69
2019-01-30T06:59:23.799Z,956.69
2019-01-30T07:00:23.758Z,956.70
2019-01-30T07:01:23.715Z,956.68
2019-01-30T07:02:32.044Z,956.66
2019-01-30T07:03:23.620Z,956.68
2019-01-30T07:04:23.578Z,956.67
2019-01-30T07:05:23.529Z,956.67
2019-01-30T07:06:23.492Z,956.60
2019-01-30T07:07:23.446Z,956.57
2019-01-30T07:08:23.403Z,956.59
2019-01-30T07:09:23.360Z,956.59
2019-01-30T07:10:23.310Z,956.58
2019-01-30T07:11:23.267Z,956.59
2019-01-30T07:12:23.216Z,956.60
2019-01-30T07:13:24.130Z,956.58
2019-01-30T07:14:23.132Z,956.57
2019-01-30T07:15:23.088Z,956.52
2019-01-30T07:16:23.037Z,956.56
2019-01-30T07:17:22.994Z,956.51
2019-01-30T07:18:22.951Z,956.51
2019-01-30T07:19:22.908Z,956.51
2019-01-30T07:20:22.869Z,956.45
2019-01-30T07:21:22.817Z,956.49
2019-01-30T07:22:22.776Z,956.52
2019-01-30T07:23:22.725Z,956.49
2019-01-30T07:24:22.686Z,956.52
2019-01-30T07:25:22.637Z,956.53
2019-01-30T07:26:22.592Z,956.50
2019-01-30T07:27:22.555Z,956.53
2019-01-30T07:28:22.505Z,956.51
2019-01-30T07:29:22.458Z,956.53
2019-01-30T07:30:22.414Z,956.51
2019-01-30T07:31:22.375Z,956.51
2019-01-30T07:32:22.327Z,956.55
2019-01-30T07:33:22.280Z,956.56
2019-01-30T07:34:22.239Z,956.60
2019-01-30T07:35:22.189Z,956.58
2019-01-30T07:36:22.147Z,956.58
2019-01-30T07:37:22.103Z,956.65
2019-01-30T07:38:22.055Z,956.58
2019-01-30T07:39:22.016Z,956.59
2019-01-30T07:40:21.969Z,956.59
2019-01-30T07:41:21.951Z,956.62
2019-01-30T07:42:21.881Z,956.67
2019-01-30T07:43:22.989Z,956.64
2019-01-30T07:44:21.790Z,956.64
2019-01-30T07:45:21.746Z,956.65
2019-01-30T07:46:21.702Z,956.63
2019-01-30T07:47:21.675Z,956.69
2019-01-30T07:48:21.608Z,956.64
2019-01-30T07:49:21.564Z,956.67
2019-01-30T07:50:21.517Z,956.65
2019-01-30T07:51:21.478Z,956.62
2019-01-30T07:52:21.432Z,956.65
2019-01-30T07:53:21.389Z,956.63
2019-01-30T07:54:21.346Z,956.67
2019-01-30T07:55:21.295Z,956.67
2019-01-30T07:56:21.256Z,956.67
2019-01-30T07:57:21.207Z,956.70
2019-01-30T07:58:21.161Z,956.69
2019-01-30T07:59:21.123Z,956.69
2019-01-30T08:00:21.077Z,956.69
2019-01-30T08:01:22.127Z,956.70
2019-01-30T08:02:22.010Z,956.71
2019-01-30T08:03:20.947Z,956.69
2019-01-30T08:04:20.900Z,956.70
2019-01-30T08:05:22.582Z,956.67
2019-01-30T08:06:20.812Z,956.69
2019-01-30T08:07:20.760Z,956.72
2019-01-30T08:08:20.717Z,956.67
2019-01-30T08:09:20.676Z,956.66
2019-01-30T08:10:20.630Z,956.67
2019-01-30T08:11:20.587Z,956.64
2019-01-30T08:12:20.540Z,956.70
2019-01-30T08:13:20.496Z,956.67
2019-01-30T08:14:20.453Z,956.69
2019-01-30T08:15:20.405Z,956.68
2019-01-30T08:16:21.917Z,956.65
2019-01-30T08:17:21.066Z,956.71
2019-01-30T08:18:20.274Z,956.71
2019-01-30T08:19:20.224Z,956.73
2019-01-30T08:20:20.184Z,956.74
2019-01-30T08:21:20.138Z,956.72
2019-01-30T08:22:20.093Z,956.74
2019-01-30T08:23:20.157Z,956.73
2019-01-30T08:24:20.319Z,956.76
2019-01-30T08:25:20.047Z,956.78
2019-01-30T08:26:19.979Z,956.74
2019-01-30T08:27:20.235Z,956.75
2019-01-30T08:28:20.120Z,956.78
2019-01-30T08:29:19.783Z,956.77
2019-01-30T08:30:22.572Z,956.81
2019-01-30T08:31:20.032Z,956.82
2019-01-30T08:32:22.226Z,956.81
2019-01-30T08:33:21.555Z,956.81
2019-01-30T08:34:19.559Z,956.78
2019-01-30T08:35:19.520Z,956.78
2019-01-30T08:36:19.473Z,956.80
2019-01-30T08:37:19.429Z,956.80
2019-01-30T08:38:19.389Z,956.76
2019-01-30T08:39:19.337Z,956.80
2019-01-30T08:40:19.295Z,956.78
2019-01-30T08:41:19.248Z,956.77
2019-01-30T08:42:19.202Z,956.80
2019-01-30T08:43:19.175Z,956.82
2019-01-30T08:44:19.118Z,956.83
2019-01-30T08:45:19.075Z,956.83
2019-01-30T08:46:19.032Z,956.82
2019-01-30T08:47:18.983Z,956.80
2019-01-30T08:48:18.975Z,956.78
2019-01-30T08:49:18.897Z,956.81
2019-01-30T08:50:18.853Z,956.79
2019-01-30T08:51:18.806Z,956.79
2019-01-30T08:52:18.761Z,956.80
2019-01-30T08:53:18.717Z,956.87
2019-01-30T08:54:18.704Z,956.85
2019-01-30T08:55:18.634Z,956.86
2019-01-30T08:56:18.586Z,956.86
2019-01-30T08:57:18.546Z,956.86
2019-01-30T08:58:18.499Z,956.92
2019-01-30T08:59:18.450Z,956.86
2019-01-30T09:00:18.411Z,956.85
2019-01-30T09:01:18.365Z,956.91
2019-01-30T09:02:20.968Z,956.93
2019-01-30T09:03:18.279Z,956.91
2019-01-30T09:04:18.234Z,956.86
2019-01-30T09:05:18.189Z,956.87
2019-01-30T09:06:18.144Z,956.88
2019-01-30T09:07:18.104Z,956.87
2019-01-30T09:08:18.058Z,956.87
2019-01-30T09:09:18.016Z,956.90
2019-01-30T09:10:17.969Z,956.89
2019-01-30T09:11:17.920Z,956.89
2019-01-30T09:12:17.878Z,956.84
2019-01-30T09:13:17.833Z,956.89
2019-01-30T09:14:17.786Z,956.92
2019-01-30T09:15:17.750Z,956.90
2019-01-30T09:16:17.705Z,956.92
2019-01-30T09:17:17.665Z,956.88
2019-01-30T09:18:17.637Z,956.92
2019-01-30T09:19:17.569Z,956.91
2019-01-30T09:20:17.524Z,956.90
2019-01-30T09:21:17.482Z,956.94
2019-01-30T09:22:17.440Z,956.95
2019-01-30T09:23:17.388Z,956.93
2019-01-30T09:24:17.350Z,956.98
2019-01-30T09:25:17.304Z,956.96
2019-01-30T09:26:17.258Z,956.95
2019-01-30T09:27:17.221Z,956.94
2019-01-30T09:28:17.176Z,956.97
2019-01-30T09:29:17.127Z,956.96
2019-01-30T09:30:18.981Z,956.95
2019-01-30T09:31:17.040Z,956.96
2019-01-30T09:32:17.001Z,956.94
2019-01-30T09:33:25.665Z,956.99
2019-01-30T09:34:16.909Z,957.00
2019-01-30T09:35:16.898Z,957.03
2019-01-30T09:36:16.831Z,957.04
2019-01-30T09:37:16.801Z,957.03
2019-01-30T09:38:16.729Z,957.05
2019-01-30T09:39:16.720Z,957.07
2019-01-30T09:40:16.644Z,957.06
2019-01-30T09:41:16.601Z,957.04
2019-01-30T09:42:16.560Z,957.04
2019-01-30T09:43:16.555Z,957.04
2019-01-30T09:44:16.465Z,957.06
2019-01-30T09:45:16.579Z,957.06
2019-01-30T09:46:16.408Z,957.05
2019-01-30T09:47:16.354Z,957.05
2019-01-30T09:48:16.292Z,957.05
2019-01-30T09:49:16.248Z,957.05
2019-01-30T09:50:16.355Z,957.08
2019-01-30T09:51:16.156Z,957.09
2019-01-30T09:52:26.411Z,957.09
2019-01-30T09:53:16.085Z,957.10
2019-01-30T09:54:16.030Z,957.10
2019-01-30T09:55:16.004Z,957.14
2019-01-30T09:56:15.938Z,957.08
2019-01-30T09:57:15.899Z,957.15
2019-01-30T09:58:15.851Z,957.16
2019-01-30T09:59:15.823Z,957.13
2019-01-30T10:00:15.765Z,957.16
2019-01-30T10:01:15.722Z,957.13
2019-01-30T10:02:15.680Z,957.14
2019-01-30T10:03:15.630Z,957.15
2019-01-30T10:04:15.592Z,957.19
2019-01-30T10:05:15.544Z,957.19
2019-01-30T10:19:48.054Z,957.28
2019-01-30T10:20:47.970Z,957.23
2019-01-30T10:21:47.927Z,957.25
2019-01-30T10:22:47.879Z,957.29
2019-01-30T10:23:47.828Z,957.26
2019-01-30T10:24:50.393Z,957.29
2019-01-30T10:25:47.751Z,957.29
2019-01-30T10:26:47.693Z,957.29
2019-01-30T10:27:47.650Z,957.29
2019-01-30T10:28:47.603Z,957.28
2019-01-30T10:29:47.555Z,957.28
2019-01-30T10:30:47.510Z,957.26
2019-01-30T10:31:47.465Z,957.27
2019-01-30T10:32:47.419Z,957.24
2019-01-30T10:33:47.383Z,957.26
2019-01-30T10:34:47.332Z,957.22
2019-01-30T10:35:47.289Z,957.26
2019-01-30T10:36:47.248Z,957.29
2019-01-30T10:37:47.194Z,957.31
2019-01-30T10:38:47.156Z,957.32
2019-01-30T10:39:47.117Z,957.31
2019-01-30T10:40:47.073Z,957.31
2019-01-30T10:41:47.020Z,957.34
2019-01-30T10:42:46.977Z,957.29
2019-01-30T10:43:46.944Z,957.36
2019-01-30T10:44:46.887Z,957.37
2019-01-30T10:45:46.850Z,957.36
2019-01-30T10:46:46.846Z,957.39
2019-01-30T10:47:46.759Z,957.41
2019-01-30T10:48:46.716Z,957.38
2019-01-30T10:49:46.669Z,957.38
2019-01-30T10:50:46.627Z,957.41
2019-01-30T10:51:46.580Z,957.40
2019-01-30T10:52:46.535Z,957.38
2019-01-30T10:53:48.131Z,957.41
2019-01-30T10:54:46.451Z,957.44
2019-01-30T10:55:46.411Z,957.41
2019-01-30T10:56:46.360Z,957.38
2019-01-30T10:57:46.323Z,957.41
2019-01-30T10:58:46.277Z,957.46
2019-01-30T10:59:46.234Z,957.45
2019-01-30T11:00:46.191Z,957.49
2019-01-30T11:01:46.150Z,957.50
2019-01-30T11:02:46.524Z,957.47
2019-01-30T11:03:46.073Z,957.44
2019-01-30T11:04:46.009Z,957.43
2019-01-30T11:05:45.971Z,957.45
2019-01-30T11:06:45.928Z,957.49
2019-01-30T11:07:45.883Z,957.51
2019-01-30T11:08:45.844Z,957.49
2019-01-30T11:09:45.792Z,957.52
2019-01-30T11:10:45.751Z,957.51
2019-01-30T11:11:45.707Z,957.49
2019-01-30T11:12:45.665Z,957.51
2019-01-30T11:13:45.615Z,957.52
2019-01-30T11:14:45.665Z,957.47
2019-01-30T11:15:45.531Z,957.47
2019-01-30T11:16:45.483Z,957.50
2019-01-30T11:17:45.446Z,957.48
2019-01-30T11:18:45.400Z,957.49
2019-01-30T11:19:45.572Z,957.50
2019-01-30T11:20:45.317Z,957.51
2019-01-30T11:21:45.265Z,957.52
2019-01-30T11:22:45.225Z,957.53
2019-01-30T11:23:45.177Z,957.48
2019-01-30T11:24:45.131Z,957.52
2019-01-30T11:25:45.096Z,957.54
2019-01-30T11:26:45.054Z,957.50
2019-01-30T11:27:45.007Z,957.55
2019-01-30T11:28:44.956Z,957.54
2019-01-30T11:29:44.918Z,957.51
2019-01-30T11:30:44.873Z,957.48
2019-01-30T11:31:44.828Z,957.50
2019-01-30T11:32:44.786Z,957.50
2019-01-30T11:33:44.739Z,957.49
2019-01-30T11:34:44.695Z,957.48
2019-01-30T11:35:44.651Z,957.50
2019-01-30T11:36:44.607Z,957.49
2019-01-30T11:37:44.568Z,957.47
2019-01-30T11:38:44.521Z,957.51
2019-01-30T11:39:44.476Z,957.52
2019-01-30T11:40:44.437Z,957.54
2019-01-30T11:41:44.388Z,957.53
2019-01-30T11:42:44.343Z,957.53
2019-01-30T11:43:44.302Z,957.53
2019-01-30T11:44:44.263Z,957.53
2019-01-30T11:45:44.217Z,957.53
2019-01-30T11:46:44.168Z,957.56
2019-01-30T11:47:44.122Z,957.51
2019-01-30T11:48:44.090Z,957.48
2019-01-30T11:49:44.041Z,957.50
2019-01-30T11:50:43.995Z,957.46
2019-01-30T11:51:43.945Z,957.48
2019-01-30T11:52:43.911Z,957.48
2019-01-30T11:53:43.864Z,957.44
2019-01-30T11:54:43.820Z,957.46
2019-01-30T11:55:43.776Z,957.50
2019-01-30T11:56:43.730Z,957.50
2019-01-30T11:57:43.683Z,957.50
2019-01-30T11:58:43.639Z,957.51
2019-01-30T11:59:43.599Z,957.53
2019-01-30T12:00:43.554Z,957.52
2019-01-30T12:01:43.508Z,957.51
2019-01-30T12:02:47.968Z,957.50
2019-01-30T12:03:43.418Z,957.46
2019-01-30T12:04:43.375Z,957.41
2019-01-30T12:05:43.333Z,957.45
2019-01-30T12:06:43.293Z,957.48
2019-01-30T12:07:43.248Z,957.52
2019-01-30T12:08:43.202Z,957.57
2019-01-30T12:09:43.155Z,957.55
2019-01-30T12:10:43.111Z,957.55
2019-01-30T12:11:43.066Z,957.57
2019-01-30T12:12:43.024Z,957.62
2019-01-30T12:13:42.983Z,957.59
2019-01-30T12:14:42.941Z,957.64
2019-01-30T12:15:42.891Z,957.64
2019-01-30T12:16:42.850Z,957.64
2019-01-30T12:17:42.808Z,957.67
2019-01-30T12:18:42.769Z,957.65
2019-01-30T12:19:42.726Z,957.67
2019-01-30T12:20:42.678Z,957.67
2019-01-30T12:21:42.635Z,957.66
2019-01-30T12:22:42.586Z,957.70
2019-01-30T12:23:42.540Z,957.71
2019-01-30T12:24:42.504Z,957.74
2019-01-30T12:25:42.459Z,957.75
2019-01-30T12:26:42.420Z,957.71
2019-01-30T12:27:42.371Z,957.75
2019-01-30T12:28:42.327Z,957.73
2019-01-30T12:29:42.281Z,957.76
2019-01-30T12:30:42.237Z,957.75
2019-01-30T12:31:42.199Z,957.77
2019-01-30T12:32:42.150Z,957.73
2019-01-30T12:33:42.164Z,957.72
2019-01-30T12:34:42.058Z,957.76
2019-01-30T12:35:42.016Z,957.77
2019-01-30T12:36:41.975Z,957.72
2019-01-30T12:37:41.931Z,957.72
2019-01-30T12:38:41.890Z,957.72
2019-01-30T12:39:41.845Z,957.76
2019-01-30T12:40:41.803Z,957.77
2019-01-30T12:41:41.753Z,957.80
2019-01-30T12:42:41.711Z,957.83
2019-01-30T12:43:41.663Z,957.82
2019-01-30T12:44:41.621Z,957.83
2019-01-30T12:45:41.579Z,957.84
2019-01-30T12:46:41.539Z,957.84
2019-01-30T12:47:41.487Z,957.87
2019-01-30T12:48:41.447Z,957.85
2019-01-30T12:49:41.406Z,957.86
2019-01-30T12:50:41.365Z,957.89
2019-01-30T12:51:41.324Z,957.91
2019-01-30T12:52:41.272Z,957.91
2019-01-30T12:53:41.228Z,957.88
2019-01-30T12:54:41.186Z,957.91
2019-01-30T12:55:41.139Z,957.91
2019-01-30T12:56:41.096Z,957.94
2019-01-30T12:57:41.053Z,957.95